Terminal Aerodrome Forecast
Issued by NWS

Home | Current Version | Previous Version | Text Only | Print | Product List | Glossary On
Versions: 1 2 3 4 5 6 7 8 9 10 11 12 13 14 15 16 17 18 19 20 21 22 23 24 25 26 27 28 29 30 31 32
000
FTUS46 KOTX 300701 AAA
TAFCOE
TAF AMD
KCOE 300701Z 3007/3106 01004KT P6SM SCT070 BKN080
     FM301000 30008KT P6SM SCT080 SCT250
     FM301500 14005KT P6SM FEW080 SCT250
     FM301800 22006KT P6SM FEW080 SCT250
      AMD LTD TO CLD AND VIS=

USA.gov is the U.S. government's official web portal to all federal, state and local government web resources and services.